Time;durP1;ratioP1;P1;durP2;ratioP2;P2;SDS_P1;SDS_P2;PMS_P1;PMS_P2;Temp;Humidity;BMP_temperature;BMP_pressure;BME280_temperature;BME280_humidity;BME280_pressure;Samples;Min_cycle;Max_cycle;Signal;HPM_P1;HPM_P2
2021/11/10 00:01:21;;;;;;;17.00;10.10;;;;;;;11.80;54.15;102433.66;5085720;27;99052;-84
2021/11/10 00:03:49;;;;;;;20.65;9.85;;;;;;;11.87;53.59;102447.69;5092960;27;96731;-84
2021/11/10 00:06:15;;;;;;;17.42;9.60;;;;;;;11.90;53.67;102442.34;5085865;27;96671;-84
2021/11/10 00:08:43;;;;;;;19.55;9.70;;;;;;;11.74;54.06;102432.88;5098350;27;96867;-81
2021/11/10 00:11:10;;;;;;;16.40;9.80;;;;;;;11.80;52.82;102432.78;5104236;27;98046;-82
2021/11/10 00:13:36;;;;;;;19.95;11.25;;;;;;;11.67;54.18;102429.41;5103223;27;97005;-84
2021/11/10 00:16:03;;;;;;;20.25;9.95;;;;;;;11.89;53.78;102430.88;5102646;27;95961;-85
2021/11/10 00:18:31;;;;;;;21.20;9.75;;;;;;;11.54;54.11;102433.09;5098928;27;96643;-84
2021/11/10 00:20:58;;;;;;;15.40;9.48;;;;;;;11.57;54.39;102439.22;5093575;27;97792;-85
2021/11/10 00:23:24;;;;;;;14.95;10.10;;;;;;;11.59;54.28;102434.78;5100755;27;96751;-85
2021/11/10 00:25:53;;;;;;;16.45;9.82;;;;;;;11.58;53.95;102425.09;5097855;27;96914;-84
2021/11/10 00:28:19;;;;;;;18.05;10.32;;;;;;;11.57;54.25;102427.75;5099598;27;99233;-84
2021/11/10 00:30:48;;;;;;;19.52;10.45;;;;;;;11.62;54.26;102436.50;5099606;27;97702;-82
2021/11/10 00:33:15;;;;;;;18.58;9.90;;;;;;;11.42;54.23;102433.28;5102813;27;95887;-84
2021/11/10 00:35:43;;;;;;;17.30;9.85;;;;;;;11.41;54.33;102428.88;5103557;27;96359;-84
2021/11/10 00:38:10;;;;;;;15.20;9.85;;;;;;;11.40;54.84;102435.94;5103319;27;99701;-82
2021/11/10 00:40:36;;;;;;;14.88;9.57;;;;;;;11.34;54.78;102445.72;5103054;27;98142;-83
2021/11/10 00:43:03;;;;;;;17.48;10.48;;;;;;;11.28;55.10;102441.38;5102239;27;97024;-83
2021/11/10 00:45:29;;;;;;;17.67;9.40;;;;;;;11.23;54.88;102443.16;5101503;27;96545;-84
2021/11/10 00:47:56;;;;;;;18.30;9.93;;;;;;;11.30;54.92;102438.69;5098874;27;97455;-83
2021/11/10 00:50:24;;;;;;;16.30;9.18;;;;;;;11.37;54.76;102451.81;5097671;27;99895;-83
2021/11/10 00:52:52;;;;;;;17.10;9.60;;;;;;;11.22;55.09;102446.72;5099470;27;98251;-84
2021/11/10 00:55:18;;;;;;;18.42;10.55;;;;;;;11.46;54.78;102437.63;5092472;27;97131;-85
2021/11/10 00:57:45;;;;;;;15.90;9.80;;;;;;;11.17;55.48;102436.19;5100720;27;97973;-84
2021/11/10 01:00:12;;;;;;;20.75;9.57;;;;;;;11.24;54.86;102444.03;5100694;27;96577;-83
2021/11/10 01:02:39;;;;;;;15.73;9.88;;;;;;;11.46;54.54;102441.13;5092202;27;96726;-84
2021/11/10 01:05:07;;;;;;;17.10;10.65;;;;;;;11.27;55.12;102438.72;5087898;27;97329;-83
2021/11/10 01:07:34;;;;;;;21.52;10.65;;;;;;;11.28;54.94;102436.06;5101463;27;98186;-84
2021/11/10 01:10:03;;;;;;;18.75;10.57;;;;;;;11.24;54.95;102433.47;5102719;27;98149;-84
2021/11/10 01:12:30;;;;;;;19.10;9.93;;;;;;;11.48;54.51;102422.59;5094058;27;96655;-82
2021/11/10 01:14:57;;;;;;;21.23;10.70;;;;;;;11.53;54.17;102424.28;5097240;27;96084;-85
2021/11/10 01:17:24;;;;;;;17.85;10.13;;;;;;;11.23;54.61;102427.28;5100186;27;98749;-83
2021/11/10 01:19:51;;;;;;;19.25;10.70;;;;;;;11.58;54.24;102419.81;5102469;27;98111;-84
2021/11/10 01:22:18;;;;;;;22.95;11.13;;;;;;;11.47;53.96;102413.78;5092487;27;95963;-84
2021/11/10 01:24:44;;;;;;;16.13;10.00;;;;;;;11.41;54.36;102410.34;5100101;27;96711;-84
2021/11/10 01:27:12;;;;;;;18.15;10.80;;;;;;;11.47;54.45;102403.19;5099019;27;100079;-82
2021/11/10 01:29:40;;;;;;;21.80;11.60;;;;;;;11.38;54.26;102399.78;5102304;27;100665;-85
2021/11/10 01:32:07;;;;;;;18.00;10.43;;;;;;;11.49;53.72;102401.38;5101069;27;96390;-85
2021/11/10 01:34:34;;;;;;;18.23;9.93;;;;;;;11.35;54.08;102403.34;5101825;27;96389;-84
2021/11/10 01:37:00;;;;;;;15.80;10.57;;;;;;;11.41;54.23;102403.28;5102968;27;100037;-84
2021/11/10 01:39:27;;;;;;;20.30;11.23;;;;;;;11.39;53.80;102386.53;5102389;27;99667;-84
2021/11/10 01:42:01;;;;;;;18.15;10.55;;;;;;;11.37;53.86;102385.66;5103136;27;96847;-86
2021/11/10 01:44:31;;;;;;;18.25;11.13;;;;;;;11.42;53.69;102380.34;5102833;27;96375;-83
2021/11/10 01:46:59;;;;;;;21.20;11.13;;;;;;;11.33;54.01;102381.31;5102727;27;98181;-84
2021/11/10 01:49:27;;;;;;;18.73;10.38;;;;;;;11.42;53.49;102385.63;5100712;27;98656;-83
2021/11/10 01:51:57;;;;;;;17.50;9.77;;;;;;;11.21;53.79;102383.25;5102553;27;96068;-85
2021/11/10 01:54:26;;;;;;;16.35;10.75;;;;;;;10.87;55.28;102375.69;5100487;27;96592;-83
2021/11/10 01:56:54;;;;;;;20.40;10.95;;;;;;;11.19;54.57;102367.38;5055447;27;97727;-85
2021/11/10 01:59:34;;;;;;;19.75;10.52;;;;;;;11.36;54.00;102349.50;5076719;27;97431;-84
2021/11/10 02:02:02;;;;;;;18.58;10.57;;;;;;;11.18;54.27;102355.03;5098689;27;96633;-85
2021/11/10 02:04:30;;;;;;;21.33;11.18;;;;;;;11.45;54.11;102349.38;5093813;27;96613;-83
2021/11/10 02:06:57;;;;;;;16.27;10.80;;;;;;;11.30;53.67;102344.28;5090810;27;98259;-83
2021/11/10 02:09:25;;;;;;;22.15;11.48;;;;;;;11.17;54.30;102346.22;5099023;27;98178;-83
2021/11/10 02:11:53;;;;;;;17.27;11.05;;;;;;;11.19;54.28;102351.50;5097751;27;96416;-83
2021/11/10 02:14:20;;;;;;;19.35;10.73;;;;;;;11.06;54.27;102353.41;5098903;27;96403;-83
2021/11/10 02:16:49;;;;;;;18.80;11.60;;;;;;;10.99;54.57;102359.69;5100980;27;96979;-82
2021/11/10 02:19:16;;;;;;;20.88;11.50;;;;;;;10.74;54.92;102352.91;5099861;27;97950;-82
2021/11/10 02:21:47;;;;;;;19.70;12.27;;;;;;;10.95;55.12;102342.09;5100562;27;96414;-83
2021/11/10 02:24:15;;;;;;;16.80;11.15;;;;;;;10.76;54.81;102332.63;5101911;27;96888;-82
2021/11/10 02:26:43;;;;;;;22.05;10.50;;;;;;;10.79;55.26;102330.81;5101336;27;96924;-83
2021/11/10 02:29:10;;;;;;;20.70;11.60;;;;;;;10.88;54.82;102326.31;5101058;27;98466;-82
2021/11/10 02:31:37;;;;;;;19.58;11.57;;;;;;;10.81;55.26;102322.88;5094876;27;96344;-83
2021/11/10 02:34:05;;;;;;;20.05;11.38;;;;;;;10.74;55.39;102332.66;5093163;27;96660;-83
2021/11/10 02:36:33;;;;;;;20.00;11.90;;;;;;;10.74;55.39;102327.34;5100241;27;96914;-83
2021/11/10 02:39:04;;;;;;;18.15;11.98;;;;;;;10.88;54.85;102323.69;5093089;27;98237;-83
2021/11/10 02:41:32;;;;;;;18.02;11.27;;;;;;;10.88;54.87;102307.81;5101352;27;96936;-83
2021/11/10 02:43:58;;;;;;;19.80;11.60;;;;;;;10.88;54.55;102311.34;5088990;27;97124;-83
2021/11/10 02:46:26;;;;;;;20.40;11.15;;;;;;;10.86;54.38;102310.47;5084362;27;99232;-83
2021/11/10 02:48:52;;;;;;;19.00;11.13;;;;;;;10.85;54.45;102300.78;5084595;27;100240;-85
2021/11/10 02:51:19;;;;;;;18.75;10.95;;;;;;;10.71;55.12;102289.47;5085850;27;96776;-83
2021/11/10 02:53:46;;;;;;;19.33;11.05;;;;;;;10.78;55.06;102292.03;5085219;27;96650;-83
2021/11/10 02:56:13;;;;;;;18.48;10.82;;;;;;;10.72;55.20;102297.41;5088692;27;96825;-84
2021/11/10 02:58:40;;;;;;;18.92;10.90;;;;;;;10.73;54.90;102293.00;5076061;27;96810;-84
2021/11/10 03:01:08;;;;;;;19.38;11.35;;;;;;;10.79;54.96;102293.78;5083859;27;96789;-84
2021/11/10 03:03:35;;;;;;;23.60;11.70;;;;;;;10.58;55.05;102288.75;5072578;27;96962;-84
2021/11/10 03:06:03;;;;;;;17.92;10.85;;;;;;;10.65;55.32;102282.50;5084167;27;100609;-85
2021/11/10 03:08:29;;;;;;;22.23;11.40;;;;;;;10.72;54.89;102286.81;5090958;27;99760;-84
2021/11/10 03:10:57;;;;;;;24.10;11.20;;;;;;;10.41;56.07;102280.13;5097780;27;96659;-84
2021/11/10 03:13:25;;;;;;;19.70;11.07;;;;;;;10.46;55.50;102278.31;5092946;27;97531;-84
2021/11/10 03:15:51;;;;;;;21.48;10.98;;;;;;;10.57;55.80;102268.50;5086286;27;97017;-84
2021/11/10 03:18:18;;;;;;;19.25;10.65;;;;;;;10.28;56.25;102278.50;5083652;27;98411;-84
2021/11/10 03:20:45;;;;;;;21.20;10.50;;;;;;;10.38;56.03;102277.50;5085907;27;96940;-84
2021/11/10 03:23:11;;;;;;;18.42;11.23;;;;;;;10.50;55.67;102287.94;5078898;27;97053;-84
2021/11/10 03:25:38;;;;;;;20.10;11.00;;;;;;;10.34;56.19;102283.72;5085697;27;99171;-84
2021/11/10 03:28:04;;;;;;;18.95;10.55;;;;;;;10.54;55.35;102288.81;5084387;27;97953;-84
2021/11/10 03:30:32;;;;;;;25.25;11.45;;;;;;;10.63;55.36;102289.56;5082929;27;96708;-85
2021/11/10 03:32:59;;;;;;;18.95;10.80;;;;;;;10.46;55.32;102288.00;5084049;27;97251;-84
2021/11/10 03:35:25;;;;;;;20.30;10.63;;;;;;;10.38;55.49;102272.22;5087598;27;98185;-84
2021/11/10 03:37:52;;;;;;;17.30;11.00;;;;;;;10.51;55.39;102280.91;5091559;27;100487;-84
2021/11/10 03:40:19;;;;;;;21.02;11.45;;;;;;;10.42;55.25;102273.09;5093993;27;96673;-83
2021/11/10 03:42:45;;;;;;;17.02;11.40;;;;;;;10.57;55.15;102276.41;5089373;27;96551;-84
2021/11/10 03:45:13;;;;;;;18.77;10.95;;;;;;;10.30;55.62;102276.75;5087567;27;99304;-83
2021/11/10 03:47:42;;;;;;;21.25;11.40;;;;;;;10.25;55.61;102275.88;5076948;27;97062;-84
2021/11/10 03:50:09;;;;;;;22.10;11.48;;;;;;;10.46;55.05;102273.03;5078450;27;96679;-84
2021/11/10 03:52:36;;;;;;;19.63;10.20;;;;;;;10.29;55.39;102270.56;5087824;27;96865;-84
2021/11/10 03:55:04;;;;;;;19.73;11.45;;;;;;;10.35;55.22;102267.00;5084336;27;97676;-85
2021/11/10 03:57:30;;;;;;;16.77;11.05;;;;;;;10.42;55.36;102266.03;5083966;27;99786;-85
2021/11/10 03:59:57;;;;;;;19.52;10.55;;;;;;;10.42;54.65;102270.44;5086437;27;96713;-85
2021/11/10 04:02:24;;;;;;;17.63;11.25;;;;;;;10.42;54.75;102265.16;5082587;27;96730;-85
2021/11/10 04:04:52;;;;;;;19.63;10.73;;;;;;;10.45;55.11;102265.09;5088761;27;100271;-83
2021/11/10 04:07:18;;;;;;;17.98;11.32;;;;;;;10.33;54.49;102271.41;5100801;27;97907;-81
2021/11/10 04:09:45;;;;;;;16.52;10.35;;;;;;;10.35;55.05;102269.63;5100852;27;96434;-86
2021/11/10 04:12:12;;;;;;;19.90;11.02;;;;;;;10.12;55.58;102277.75;5098893;27;96218;-83
2021/11/10 04:14:38;;;;;;;19.17;11.25;;;;;;;10.22;55.00;102265.38;5095537;27;99748;-84
2021/11/10 04:17:09;;;;;;;20.83;11.43;;;;;;;10.24;55.07;102261.78;5098846;27;97629;-82
2021/11/10 04:19:36;;;;;;;22.70;12.00;;;;;;;10.18;55.24;102255.69;5086469;27;96714;-83
2021/11/10 04:22:04;;;;;;;24.00;11.50;;;;;;;10.30;54.41;102260.88;5083952;27;96666;-82
2021/11/10 04:24:31;;;;;;;17.80;10.98;;;;;;;10.19;55.28;102257.47;5085729;27;98169;-83
2021/11/10 04:26:57;;;;;;;21.08;11.52;;;;;;;10.24;55.06;102259.16;5085960;27;100210;-83
2021/11/10 04:29:24;;;;;;;21.85;12.05;;;;;;;10.01;55.55;102274.31;5082530;27;97529;-84
2021/11/10 04:31:50;;;;;;;19.98;10.95;;;;;;;10.19;55.09;102268.03;5077994;27;96818;-83
2021/11/10 04:34:17;;;;;;;26.33;11.63;;;;;;;10.14;54.40;102267.16;5079917;27;99366;-85
2021/11/10 04:36:44;;;;;;;21.48;11.82;;;;;;;10.02;54.84;102265.53;5079659;27;98062;-85
2021/11/10 04:39:12;;;;;;;23.20;12.73;;;;;;;9.78;55.91;102271.88;5079260;27;96808;-85
2021/11/10 04:41:39;;;;;;;20.10;12.20;;;;;;;9.90;55.50;102274.44;5081331;27;96770;-84
2021/11/10 04:44:05;;;;;;;20.38;12.13;;;;;;;9.86;55.22;102266.53;5078307;27;98491;-85
2021/11/10 04:46:33;;;;;;;19.85;11.82;;;;;;;9.92;55.26;102267.34;5080920;27;98857;-85
2021/11/10 04:49:01;;;;;;;19.23;11.63;;;;;;;9.77;55.75;102270.16;5075810;27;96910;-85
2021/11/10 04:51:28;;;;;;;20.02;11.88;;;;;;;9.96;55.49;102261.19;5081703;27;97892;-84
2021/11/10 04:53:57;;;;;;;19.48;11.60;;;;;;;10.10;54.77;102266.34;5081039;27;98868;-84
2021/11/10 04:56:25;;;;;;;21.50;11.85;;;;;;;10.19;54.23;102257.47;5085484;27;101195;-83
2021/11/10 04:58:52;;;;;;;19.42;12.30;;;;;;;9.90;54.70;102266.50;5102406;27;95944;-83
2021/11/10 05:01:24;;;;;;;21.23;11.15;;;;;;;9.95;54.98;102264.69;5100677;27;96592;-83
2021/11/10 05:03:51;;;;;;;17.95;11.18;;;;;;;10.03;54.78;102266.41;5092649;27;98036;-82
2021/11/10 05:06:18;;;;;;;20.90;11.73;;;;;;;10.00;54.37;102273.44;5082091;27;100207;-83
2021/11/10 05:08:44;;;;;;;22.20;11.38;;;;;;;9.88;54.80;102268.28;5079882;27;96685;-83
2021/11/10 05:11:11;;;;;;;23.13;12.77;;;;;;;9.89;54.99;102271.81;5079501;27;96987;-83
2021/11/10 05:13:39;;;;;;;20.42;12.75;;;;;;;9.93;54.70;102263.81;5079294;27;96821;-83
2021/11/10 05:16:06;;;;;;;23.63;12.50;;;;;;;10.02;54.42;102265.53;5078543;27;99187;-83
2021/11/10 05:18:32;;;;;;;24.90;12.02;;;;;;;10.12;54.71;102247.81;5079320;27;96661;-84
2021/11/10 05:20:59;;;;;;;19.20;10.98;;;;;;;9.97;54.24;102247.09;5079678;27;96791;-83
2021/11/10 05:23:27;;;;;;;20.92;11.45;;;;;;;10.22;53.48;102238.94;5079357;27;101344;-84
2021/11/10 05:25:54;;;;;;;19.30;11.77;;;;;;;10.17;54.11;102248.69;5078303;27;96972;-83
2021/11/10 05:28:21;;;;;;;18.10;11.43;;;;;;;9.96;54.35;102250.63;5086564;27;96746;-83
2021/11/10 05:30:49;;;;;;;23.83;11.95;;;;;;;10.08;53.86;102248.75;5077999;27;96658;-83
2021/11/10 05:33:16;;;;;;;18.77;11.52;;;;;;;9.93;54.35;102252.38;5080854;27;102045;-83
2021/11/10 05:35:42;;;;;;;29.10;14.32;;;;;;;9.99;54.07;102239.13;5078831;27;101067;-85
2021/11/10 05:38:09;;;;;;;23.10;12.15;;;;;;;9.70;54.86;102247.31;5062726;27;96735;-83
2021/11/10 05:40:39;;;;;;;21.35;12.57;;;;;;;9.78;54.75;102252.53;5065947;27;97385;-83
2021/11/10 05:43:06;;;;;;;20.33;11.85;;;;;;;9.85;54.34;102247.16;5076558;27;100351;-82
2021/11/10 05:45:33;;;;;;;20.73;11.93;;;;;;;9.91;54.31;102247.13;5072629;27;97554;-83
2021/11/10 05:48:01;;;;;;;18.52;11.25;;;;;;;9.86;54.16;102245.41;5067429;27;96694;-84
2021/11/10 05:50:27;;;;;;;23.10;11.93;;;;;;;9.78;54.19;102248.09;5083902;27;96819;-82
2021/11/10 05:52:55;;;;;;;24.52;12.77;;;;;;;9.85;54.96;102241.88;5091715;27;98915;-83
2021/11/10 05:55:24;;;;;;;22.38;12.20;;;;;;;10.00;53.32;102246.16;5093485;27;99611;-84
2021/11/10 05:57:51;;;;;;;22.13;12.02;;;;;;;10.02;53.93;102240.88;5101638;27;95892;-85
2021/11/10 06:00:19;;;;;;;23.33;12.55;;;;;;;9.80;54.03;102248.97;5102569;27;95930;-83
2021/11/10 06:02:46;;;;;;;21.58;12.57;;;;;;;9.97;53.82;102236.53;5096606;27;97025;-85
2021/11/10 06:05:17;;;;;;;20.08;11.55;;;;;;;10.11;54.18;102241.66;5102064;27;100221;-86
2021/11/10 06:07:45;;;;;;;22.33;12.43;;;;;;;10.06;53.14;102229.38;5093053;27;96617;-86
2021/11/10 06:10:12;;;;;;;24.02;12.73;;;;;;;10.06;53.46;102229.38;5084982;27;96709;-85
2021/11/10 06:12:38;;;;;;;17.10;11.70;;;;;;;10.15;53.59;102242.50;5079119;27;97816;-85
2021/11/10 06:15:06;;;;;;;22.55;12.75;;;;;;;9.99;53.15;102250.56;5078451;27;101327;-84
2021/11/10 06:17:33;;;;;;;21.55;12.45;;;;;;;9.96;53.57;102247.97;5079511;27;96981;-84
2021/11/10 06:20:01;;;;;;;18.83;11.60;;;;;;;9.82;53.99;102236.66;5077537;27;96820;-83
2021/11/10 06:22:30;;;;;;;22.17;11.80;;;;;;;9.99;53.71;102233.84;5072170;27;100294;-84
2021/11/10 06:24:57;;;;;;;27.50;12.52;;;;;;;10.06;53.53;102239.94;5074424;27;99165;-84
2021/11/10 06:27:23;;;;;;;23.17;12.48;;;;;;;10.00;53.41;102232.97;5077497;27;96635;-84
2021/11/10 06:29:50;;;;;;;23.70;12.50;;;;;;;9.99;53.19;102228.56;5079014;27;97032;-84
2021/11/10 06:32:21;;;;;;;21.95;12.27;;;;;;;9.84;53.84;102240.16;5078610;27;100668;-84
2021/11/10 06:34:48;;;;;;;22.48;12.18;;;;;;;9.95;53.61;102233.00;5071318;27;98123;-86
2021/11/10 06:37:15;;;;;;;22.48;12.52;;;;;;;9.93;53.58;102237.41;5078788;27;96894;-84
2021/11/10 06:39:43;;;;;;;24.27;12.35;;;;;;;10.06;53.24;102237.31;5077936;27;98707;-83
2021/11/10 06:42:10;;;;;;;23.92;12.52;;;;;;;10.07;53.70;102232.00;5074028;27;99177;-82
2021/11/10 06:44:37;;;;;;;23.80;13.65;;;;;;;10.11;53.75;102231.06;5076467;27;97709;-82
2021/11/10 06:47:04;;;;;;;21.58;12.00;;;;;;;10.11;53.43;102224.94;5076512;27;97152;-83
2021/11/10 06:49:31;;;;;;;26.48;12.35;;;;;;;10.23;52.88;102227.50;5074469;27;96878;-81
2021/11/10 06:51:58;;;;;;;30.95;12.90;;;;;;;10.26;53.07;102222.16;5075802;27;97891;-82
2021/11/10 06:54:27;;;;;;;25.55;13.25;;;;;;;9.97;53.17;102228.59;5081072;27;98829;-83
2021/11/10 06:56:55;;;;;;;24.85;13.25;;;;;;;10.24;53.27;102229.25;5078437;27;97088;-83
2021/11/10 06:59:22;;;;;;;28.92;13.00;;;;;;;10.09;53.21;102224.09;5078439;27;97994;-83
2021/11/10 07:01:48;;;;;;;24.05;13.35;;;;;;;10.12;53.41;102231.97;5079150;27;98213;-82
2021/11/10 07:04:17;;;;;;;26.63;12.77;;;;;;;10.01;53.62;102237.34;5079791;27;98638;-82
2021/11/10 07:06:44;;;;;;;24.90;13.75;;;;;;;9.86;54.56;102233.09;5066695;27;96764;-82
2021/11/10 07:09:10;;;;;;;25.17;13.80;;;;;;;10.02;54.20;102232.94;5064064;27;97382;-82
2021/11/10 07:11:43;;;;;;;29.65;14.88;;;;;;;10.22;53.85;102241.59;5062295;27;101905;-82
2021/11/10 07:14:11;;;;;;;34.78;14.07;;;;;;;10.05;54.04;102228.50;5059825;27;98086;-82
2021/11/10 07:16:38;;;;;;;25.42;13.82;;;;;;;10.33;52.96;102230.00;5063952;27;97585;-82
2021/11/10 07:19:05;;;;;;;34.47;14.70;;;;;;;10.47;52.42;102218.41;5063572;27;97264;-82
2021/11/10 07:21:32;;;;;;;22.02;12.75;;;;;;;10.47;52.41;102235.13;5059478;27;98130;-82
2021/11/10 07:23:58;;;;;;;23.50;13.90;;;;;;;10.22;52.71;102237.19;5058873;27;99581;-82
2021/11/10 07:26:25;;;;;;;41.75;14.30;;;;;;;10.18;53.48;102255.69;5064886;27;98830;-81
2021/11/10 07:28:52;;;;;;;25.15;13.68;;;;;;;10.38;53.29;102243.16;5065036;27;98068;-81
2021/11/10 07:31:22;;;;;;;48.72;14.55;;;;;;;10.59;52.86;102252.63;5062338;27;99026;-80
2021/11/10 07:33:48;;;;;;;27.98;13.50;;;;;;;10.54;52.78;102260.63;5065562;27;98758;-82
2021/11/10 07:36:15;;;;;;;25.00;13.20;;;;;;;10.72;52.60;102252.47;5066865;27;98945;-81
2021/11/10 07:38:41;;;;;;;24.23;13.75;;;;;;;10.69;51.73;102249.00;5045030;27;97356;-82
2021/11/10 07:41:11;;;;;;;27.20;13.45;;;;;;;10.61;52.75;102250.84;5059441;27;101646;-82
2021/11/10 07:43:38;;;;;;;25.50;14.20;;;;;;;10.57;52.09;102249.97;5062893;27;100080;-83
2021/11/10 07:46:10;;;;;;;27.10;14.25;;;;;;;10.65;52.65;102252.53;5045487;27;96985;-80
2021/11/10 07:48:39;;;;;;;25.85;13.93;;;;;;;10.39;52.86;102260.78;5071971;27;98006;-81
2021/11/10 07:51:06;;;;;;;23.98;13.27;;;;;;;10.44;53.33;102264.22;5082048;27;96611;-80
2021/11/10 07:53:32;;;;;;;24.08;14.20;;;;;;;10.54;53.02;102271.19;5089060;27;99563;-80
2021/11/10 07:55:59;;;;;;;27.30;14.85;;;;;;;10.72;52.51;102273.59;5086193;27;98864;-80
2021/11/10 07:58:26;;;;;;;39.55;15.07;;;;;;;10.73;52.57;102267.44;5091320;27;96865;-82
2021/11/10 08:00:53;;;;;;;24.42;13.52;;;;;;;10.88;52.58;102270.78;5080384;27;98165;-81
2021/11/10 08:03:19;;;;;;;24.20;13.43;;;;;;;10.74;52.66;102271.84;5072452;27;98041;-82
2021/11/10 08:05:47;;;;;;;33.88;15.80;;;;;;;10.87;51.91;102263.75;5069066;27;98265;-82
2021/11/10 08:08:14;;;;;;;25.95;14.35;;;;;;;11.11;51.94;102268.69;5065005;27;99637;-83
2021/11/10 08:10:43;;;;;;;24.38;14.48;;;;;;;11.02;51.82;102274.13;5048675;27;100195;-82
2021/11/10 08:13:10;;;;;;;23.55;14.50;;;;;;;11.36;51.11;102261.28;5064422;27;98198;-81
2021/11/10 08:15:37;;;;;;;29.60;14.40;;;;;;;11.37;50.69;102266.56;5065370;27;97280;-80
2021/11/10 08:18:03;;;;;;;24.90;14.23;;;;;;;11.41;49.82;102273.56;5067791;27;99903;-81
2021/11/10 08:20:30;;;;;;;28.90;15.93;;;;;;;11.50;50.02;102273.41;5062635;27;99028;-80
2021/11/10 08:22:58;;;;;;;27.70;14.65;;;;;;;11.76;49.50;102275.69;5069074;27;98221;-81
2021/11/10 08:25:25;;;;;;;27.17;14.80;;;;;;;11.76;49.50;102280.13;5071590;27;97484;-81
2021/11/10 08:27:52;;;;;;;26.25;14.05;;;;;;;11.75;49.45;102279.22;5066783;27;97874;-80
2021/11/10 08:30:21;;;;;;;23.25;13.75;;;;;;;11.63;49.46;102286.47;5071980;27;101300;-82
2021/11/10 08:32:50;;;;;;;25.38;13.70;;;;;;;11.70;49.63;102277.53;5069242;27;99624;-82
2021/11/10 08:35:19;;;;;;;22.92;13.32;;;;;;;11.73;49.55;102277.50;5082270;27;97562;-81
2021/11/10 08:37:47;;;;;;;26.30;14.68;;;;;;;11.82;49.20;102286.19;5075215;27;97862;-81
2021/11/10 08:40:15;;;;;;;22.73;13.93;;;;;;;11.95;49.19;102276.25;5066936;27;99831;-81
2021/11/10 08:42:41;;;;;;;29.60;13.90;;;;;;;11.91;48.97;102274.56;5065309;27;101038;-81
2021/11/10 08:45:11;;;;;;;21.58;13.13;;;;;;;11.92;48.72;102271.91;5075819;27;97794;-81
2021/11/10 08:47:39;;;;;;;25.92;12.75;;;;;;;12.10;48.64;102269.81;5075744;27;96839;-82
2021/11/10 08:50:07;;;;;;;23.98;13.70;;;;;;;11.96;48.46;102268.28;5075140;27;100897;-81
2021/11/10 08:52:34;;;;;;;23.23;12.80;;;;;;;12.34;48.06;102259.66;5071970;27;99735;-81
2021/11/10 08:55:01;;;;;;;22.75;13.25;;;;;;;12.32;47.72;102258.81;5068160;27;96913;-81
2021/11/10 08:57:29;;;;;;;20.45;12.48;;;;;;;12.12;48.33;102253.00;5063858;27;97956;-82
2021/11/10 08:59:55;;;;;;;23.83;12.98;;;;;;;12.21;47.79;102255.47;5062166;27;101048;-82
2021/11/10 09:02:22;;;;;;;22.67;13.07;;;;;;;12.27;48.00;102251.88;5056013;27;99314;-82
2021/11/10 09:04:49;;;;;;;21.42;13.18;;;;;;;12.50;47.54;102251.41;5065908;27;97675;-81
2021/11/10 09:07:15;;;;;;;24.85;13.50;;;;;;;12.52;47.75;102247.84;5069711;27;96861;-80
2021/11/10 09:09:42;;;;;;;26.48;14.25;;;;;;;12.69;47.21;102235.09;5076706;27;102206;-81
2021/11/10 09:12:09;;;;;;;25.08;13.00;;;;;;;12.77;47.04;102245.56;5075354;27;101325;-80
2021/11/10 09:14:37;;;;;;;24.98;14.07;;;;;;;12.72;47.14;102247.44;5071992;27;97221;-80
2021/11/10 09:17:04;;;;;;;25.52;14.45;;;;;;;13.04;46.51;102239.66;5068241;27;96976;-80
2021/11/10 09:19:31;;;;;;;21.63;13.05;;;;;;;13.21;45.99;102249.03;5074982;27;101541;-81
2021/11/10 09:21:58;;;;;;;23.73;14.10;;;;;;;13.06;46.16;102237.81;5065544;27;101141;-81
2021/11/10 09:24:24;;;;;;;23.40;13.80;;;;;;;13.21;45.57;102235.78;5076730;27;96807;-80
2021/11/10 09:26:52;;;;;;;23.67;13.10;;;;;;;13.43;44.43;102237.03;5073677;27;97372;-80
2021/11/10 09:29:19;;;;;;;26.67;13.77;;;;;;;13.51;45.41;102241.25;5078760;27;101438;-80
2021/11/10 09:31:48;;;;;;;22.75;13.77;;;;;;;13.59;44.74;102249.00;5081862;27;100051;-80
2021/11/10 09:34:15;;;;;;;22.35;13.60;;;;;;;13.40;44.90;102232.66;5089492;27;96738;-79
2021/11/10 09:36:46;;;;;;;23.83;13.55;;;;;;;13.65;44.76;102235.63;5100526;27;96608;-79
2021/11/10 09:39:14;;;;;;;22.80;14.25;;;;;;;13.69;44.71;102239.94;5092897;27;98811;-80
2021/11/10 09:41:41;;;;;;;38.83;13.77;;;;;;;13.65;44.88;102230.31;5081550;27;98172;-80
2021/11/10 09:44:08;;;;;;;29.20;13.70;;;;;;;13.67;44.87;102228.47;5078901;27;96829;-80
2021/11/10 09:46:36;;;;;;;23.73;13.57;;;;;;;13.89;44.19;102216.38;5080150;27;97244;-81
2021/11/10 09:49:04;;;;;;;22.40;12.80;;;;;;;13.66;44.97;102215.22;5067661;27;101384;-80
2021/11/10 09:51:30;;;;;;;22.17;12.82;;;;;;;13.67;44.99;102217.84;5074765;27;99277;-80
2021/11/10 09:53:58;;;;;;;24.95;13.35;;;;;;;13.67;44.80;102222.28;5073839;27;97251;-79
2021/11/10 09:56:25;;;;;;;21.52;12.85;;;;;;;13.78;44.25;102223.78;5070057;27;97025;-80
2021/11/10 09:58:52;;;;;;;20.48;12.15;;;;;;;13.79;44.71;102206.91;5075908;27;97965;-80
2021/11/10 10:01:20;;;;;;;22.17;12.55;;;;;;;13.86;44.74;102208.47;5069709;27;97852;-79
2021/11/10 10:03:48;;;;;;;18.05;11.90;;;;;;;13.98;43.83;102205.50;5066704;27;98346;-80
2021/11/10 10:09:29;;;;;;;20.27;11.77;;;;;;;13.59;44.25;102213.66;5058007;27;98541;-81
2021/11/10 10:11:56;;;;;;;16.88;10.93;;;;;;;13.62;44.24;102217.09;5068123;27;100178;-81
2021/11/10 10:14:22;;;;;;;21.77;11.07;;;;;;;14.11;43.13;102199.88;5075044;27;96902;-80
2021/11/10 10:16:49;;;;;;;27.92;11.43;;;;;;;14.48;42.44;102194.44;5067684;27;96857;-80
2021/11/10 10:19:16;;;;;;;19.77;11.35;;;;;;;14.57;41.70;102192.34;5065360;27;101439;-80
2021/11/10 10:21:44;;;;;;;18.80;11.32;;;;;;;14.44;41.92;102198.94;5072905;27;96923;-80
2021/11/10 10:27:25;;;;;;;28.70;12.02;;;;;;;15.52;40.34;102191.19;5041748;27;97587;-80
2021/11/10 10:30:28;;;;;;;17.67;10.55;;;;;;;15.61;39.84;102178.50;5071570;27;97274;-81
2021/11/10 10:32:58;;;;;;;19.92;10.27;;;;;;;15.51;38.69;102183.19;5071576;27;99684;-81
2021/11/10 10:35:34;;;;;;;15.60;10.27;;;;;;;14.99;40.36;102195.53;5074428;27;96746;-80
2021/11/10 10:38:01;;;;;;;18.05;10.48;;;;;;;14.99;40.20;102194.66;5073237;27;98284;-82
2021/11/10 10:40:31;;;;;;;16.48;10.57;;;;;;;15.11;40.04;102183.63;5075473;27;99247;-82
2021/11/10 10:43:00;;;;;;;17.38;10.32;;;;;;;15.19;40.33;102184.25;5068123;27;97718;-82
2021/11/10 10:45:31;;;;;;;14.43;9.68;;;;;;;15.26;39.88;102183.16;5075651;27;97250;-82
2021/11/10 10:48:01;;;;;;;17.58;10.63;;;;;;;15.15;40.88;102167.53;5073340;27;97230;-83
2021/11/10 10:50:34;;;;;;;16.10;10.20;;;;;;;15.41;40.02;102160.47;5072591;27;101396;-82
2021/11/10 10:53:01;;;;;;;19.13;10.50;;;;;;;15.35;40.06;102161.56;5066836;27;97541;-82
2021/11/10 10:55:32;;;;;;;20.40;10.27;;;;;;;15.43;39.93;102156.81;5077665;27;96708;-84
2021/11/10 10:58:00;;;;;;;19.38;9.93;;;;;;;15.30;39.70;102171.47;5070508;27;97041;-82
2021/11/10 11:00:29;;;;;;;20.25;9.95;;;;;;;15.54;39.19;102157.38;5073363;27;99454;-83
2021/11/10 11:02:58;;;;;;;21.52;10.65;;;;;;;15.54;39.25;102162.72;5076280;27;98213;-83
2021/11/10 11:05:38;;;;;;;14.38;10.18;;;;;;;15.20;39.90;102166.50;5074582;27;96867;-82
2021/11/10 11:08:33;;;;;;;19.88;10.38;;;;;;;15.10;40.07;102165.91;5056085;27;97072;-82
2021/11/10 11:11:00;;;;;;;16.23;10.30;;;;;;;15.35;40.26;102166.88;5070976;27;100710;-82
2021/11/10 11:13:47;;;;;;;16.42;10.07;;;;;;;15.49;40.09;102164.59;5072177;27;98410;-82
2021/11/10 11:16:17;;;;;;;24.35;10.98;;;;;;;15.36;39.94;102165.09;5077649;27;96664;-83
2021/11/10 11:18:44;;;;;;;17.63;10.70;;;;;;;15.05;40.23;102171.38;5088090;27;96900;-82